Main page
METAR-TAF:

METAR-TAF

Airports :

RAF Shawbury

Shawbury, England

latitude: 52-48N, longitude: 002-40W, elevation: 76 m

Current weather observation

The report was made 29 minutes ago, at 17:50 UTC
Wind 6 kt from the South/Southeast
Temperature 9°C
Humidity 93%
Pressure 1008 hPa
Visibility 10 km or more
Few clouds at a height of 1300 ft
Broken clouds at a height of 1700 ft

METAR: EGOS 281750Z 15006KT 9999 FEW013 BKN017 09/08 Q1008 RMK WHT

Time: 18:19 (18:19 UTC)

Forecast

The report was made 1 hour and 46 minutes ago, at 16:33 UTC
Forecast valid from 28 at 18 UTC to 28 at 23 UTC
Wind 12 kt from the South with gusts up to 22 kt
Visibility 10 km or more
Broken clouds at a height of 1800 ft
Probability 30% :
Temporary
from 28 at 18 UTC to 28 at 23 UTC
Visibility: 5000 m
Broken clouds at a height of 1000 ft
light rain, drizzle,

TAF: EGOS 281633Z 2818/2823 19012G22KT 9999 BKN018 PROB30 TEMPO 2818/2823 5000 -RADZ BKN010

Weather observations and forecasts of more than 4000 airports (METAR and TAF reports).

The available stations are represented by yellow and red dots on the map.

Hover mouse over dot to see the name of the station.

Then click to see weather observations and forecasts.

To change the map : click on the green buttons with a black cross to zoom in, on the green button with a dash to zoom out, or on the green arrows for adjacent maps.


METAR-TAF: